Time;durP1;ratioP1;P1;durP2;ratioP2;P2;SDS_P1;SDS_P2;PMS_P1;PMS_P2;Temp;Humidity;BMP_temperature;BMP_pressure;BME280_temperature;BME280_humidity;BME280_pressure;Samples;Min_cycle;Max_cycle;Signal;HPM_P1;HPM_P2
2022/11/05 00:10:30;;;;;;;;;13.67;13.67;;;;;12.06;65.96;-19533.81;5056789;28;45477;-79
2022/11/05 00:18:28;;;;;;;;;12.33;11.00;;;;;11.84;66.01;-19528.31;5056407;28;45346;-78
2022/11/05 00:20:53;;;;;;;;;11.33;9.67;;;;;12.10;66.11;-19534.91;5056629;28;45450;-78
2022/11/05 00:26:06;;;;;;;;;13.67;9.00;;;;;12.02;65.96;-19533.03;5052571;28;45325;-79
2022/11/05 00:28:32;;;;;;;;;9.00;7.00;;;;;12.21;66.17;-19538.00;5052811;28;46702;-79
2022/11/05 00:31:10;;;;;;;;;8.67;5.67;;;;;12.16;65.83;-19536.66;5034744;28;45484;-79
2022/11/05 00:33:37;;;;;;;;;13.00;10.00;;;;;12.20;65.96;-19537.75;5055221;28;45604;-79
2022/11/05 00:36:03;;;;;;;;;10.33;7.33;;;;;12.19;65.89;-19537.47;5054427;28;45505;-79
2022/11/05 00:38:29;;;;;;;;;12.00;9.33;;;;;12.06;66.19;-19533.81;5058637;28;45377;-79
2022/11/05 00:40:55;;;;;;;;;9.67;9.00;;;;;12.18;66.03;-19537.06;5059948;28;45934;-79
2022/11/05 00:46:05;;;;;;;;;13.00;10.67;;;;;12.15;66.29;-19536.25;5059546;28;45377;-79
2022/11/05 00:51:14;;;;;;;;;12.00;9.67;;;;;12.32;65.87;-19540.69;5068282;28;45374;-78
2022/11/05 00:53:40;;;;;;;;;6.00;6.00;;;;;11.91;65.90;-19529.94;5045989;28;46083;-79
2022/11/05 00:56:06;;;;;;;;;6.67;6.67;;;;;12.07;66.02;-19534.22;5047649;28;45315;-79
2022/11/05 00:58:31;;;;;;;;;9.00;9.00;;;;;12.02;65.76;-19533.03;5034206;28;45307;-79
2022/11/05 01:00:58;;;;;;;;;9.33;9.33;;;;;12.29;65.87;-19539.88;5066700;28;45532;-79
2022/11/05 01:03:28;;;;;;;;;9.33;8.00;;;;;12.17;65.61;-19536.94;5061068;28;46590;-79
2022/11/05 01:05:57;;;;;;;;;8.67;8.67;;;;;12.24;65.52;-19538.81;5060550;28;45371;-79
2022/11/05 01:08:25;;;;;;;;;12.00;9.00;;;;;12.28;65.59;-19539.75;5070297;28;45469;-79
2022/11/05 01:10:54;;;;;;;;;8.67;7.67;;;;;12.27;65.53;-19539.34;5062329;28;45455;-79
2022/11/05 01:13:23;;;;;;;;;9.33;6.67;;;;;12.27;65.68;-19539.34;5062018;28;46431;-79
2022/11/05 01:15:49;;;;;;;;;7.67;7.67;;;;;12.25;65.44;-19538.94;5045600;28;45433;-79
2022/11/05 01:18:16;;;;;;;;;11.00;8.67;;;;;12.23;65.50;-19538.41;5058970;28;45618;-79
2022/11/05 01:20:41;;;;;;;;;9.33;9.33;;;;;12.19;65.48;-19537.47;5060082;28;45311;-79
2022/11/05 01:23:07;;;;;;;;;11.67;9.67;;;;;12.13;65.68;-19535.84;5058058;28;45552;-79
2022/11/05 01:25:32;;;;;;;;;12.67;10.00;;;;;11.97;65.54;-19531.53;5061023;28;45395;-79
2022/11/05 01:27:57;;;;;;;;;8.33;8.33;;;;;11.65;65.33;-19523.06;5043198;28;45435;-79
2022/11/05 01:30:23;;;;;;;;;8.67;7.00;;;;;12.08;65.51;-19534.38;5067365;28;45348;-79
2022/11/05 01:32:49;;;;;;;;;7.67;7.67;;;;;12.06;65.39;-19533.81;5034385;28;48546;-79
2022/11/05 01:35:16;;;;;;;;;11.33;10.33;;;;;12.03;65.39;-19533.16;5063015;28;45383;-79
2022/11/05 01:37:42;;;;;;;;;10.33;8.67;;;;;11.88;65.19;-19529.13;5056699;28;45366;-79
2022/11/05 01:40:13;;;;;;;;;10.33;9.00;;;;;11.97;65.25;-19531.53;5045019;28;45671;-79
2022/11/05 01:42:39;;;;;;;;;11.00;9.00;;;;;11.90;65.42;-19529.78;5049231;28;47019;-79
2022/11/05 01:45:26;;;;;;;;;9.00;7.67;;;;;11.91;65.33;-19529.94;5037519;28;45438;-79
2022/11/05 01:48:07;;;;;;;;;9.33;7.00;;;;;11.89;65.40;-19529.38;5037352;28;45456;-79
2022/11/05 01:50:34;;;;;;;;;9.00;9.00;;;;;11.89;65.67;-19529.53;5034878;28;45528;-79
2022/11/05 01:53:23;;;;;;;;;9.00;9.00;;;;;11.69;65.66;-19524.13;5049117;28;46220;-79
2022/11/05 01:56:01;;;;;;;;;6.67;6.67;;;;;11.82;65.73;-19527.63;5036629;28;45512;-79
2022/11/05 01:58:33;;;;;;;;;10.33;8.00;;;;;11.83;65.67;-19527.91;5038287;28;45425;-79
2022/11/05 02:00:59;;;;;;;;;8.33;6.67;;;;;11.75;65.46;-19525.75;5047905;28;45263;-79
2022/11/05 02:03:25;;;;;;;;;8.33;6.33;;;;;11.75;65.88;-19525.88;5049306;28;47325;-79
2022/11/05 02:05:56;;;;;;;;;7.00;7.00;;;;;11.81;65.89;-19527.50;5037707;28;45424;-79
2022/11/05 02:08:38;;;;;;;;;9.67;7.33;;;;;11.82;65.84;-19527.75;5038101;28;45628;-79
2022/11/05 02:11:04;;;;;;;;;7.00;7.00;;;;;11.72;65.83;-19524.94;5037878;28;45432;-79
2022/11/05 02:13:30;;;;;;;;;9.00;9.00;;;;;11.66;65.94;-19523.31;5037476;28;45937;-79
2022/11/05 02:16:12;;;;;;;;;7.67;7.67;;;;;11.78;65.69;-19526.56;5049723;28;45403;-79
2022/11/05 02:18:51;;;;;;;;;7.00;5.00;;;;;11.79;65.95;-19526.97;5037129;28;45385;-79
2022/11/05 02:21:38;;;;;;;;;9.33;8.00;;;;;11.78;65.92;-19526.56;5045057;28;45360;-79
2022/11/05 02:24:44;;;;;;;;;8.00;6.33;;;;;11.76;65.58;-19526.16;5034900;28;46179;-79
2022/11/05 02:27:45;;;;;;;;;8.67;7.00;;;;;11.53;65.53;-19519.94;5026973;28;45422;-79
2022/11/05 02:30:39;;;;;;;;;7.00;7.00;;;;;11.75;65.94;-19525.88;5035432;28;45535;-79
2022/11/05 02:33:22;;;;;;;;;8.00;7.00;;;;;11.73;65.68;-19525.19;5065547;28;45619;-79
2022/11/05 02:36:00;;;;;;;;;7.00;5.67;;;;;11.74;66.15;-19525.47;5039805;28;48455;-79
2022/11/05 02:39:03;;;;;;;;;8.33;7.00;;;;;11.71;65.83;-19524.81;5066233;28;45420;-78
2022/11/05 02:41:46;;;;;;;;;10.00;7.00;;;;;11.70;66.28;-19524.53;5059712;28;45377;-78
2022/11/05 02:44:11;;;;;;;;;11.00;8.00;;;;;11.72;66.07;-19524.94;5055623;28;45603;-78
2022/11/05 02:46:46;;;;;;;;;10.67;6.67;;;;;11.73;66.00;-19525.34;5053698;28;45458;-79
2022/11/05 02:49:25;;;;;;;;;7.00;7.00;;;;;11.75;66.40;-19525.88;5057350;28;45491;-79
2022/11/05 02:51:57;;;;;;;;;9.00;6.00;;;;;11.78;66.13;-19526.56;5060787;28;45332;-79
2022/11/05 02:54:35;;;;;;;;;4.00;4.00;;;;;11.47;66.46;-19518.47;5056338;28;45482;-79
2022/11/05 02:57:02;;;;;;;;;7.67;6.67;;;;;11.46;66.32;-19518.06;5040937;28;47053;-79
2022/11/05 02:59:28;;;;;;;;;9.33;6.33;;;;;11.78;66.38;-19526.69;5057566;28;45377;-79
2022/11/05 03:01:55;;;;;;;;;8.00;7.67;;;;;11.62;66.28;-19522.38;5057421;28;45451;-79
2022/11/05 03:04:23;;;;;;;;;6.00;6.00;;;;;11.49;66.30;-19518.88;5057974;28;45404;-79
2022/11/05 03:07:01;;;;;;;;;7.00;6.67;;;;;11.85;66.62;-19528.44;5057039;28;45378;-78
2022/11/05 03:09:46;;;;;;;;;6.67;6.67;;;;;11.87;66.63;-19528.84;5063803;28;45299;-78
2022/11/05 03:12:15;;;;;;;;;6.33;6.33;;;;;11.90;66.26;-19529.78;5032629;28;45383;-76
2022/11/05 03:15:08;;;;;;;;;7.33;7.33;;;;;11.89;66.79;-19529.53;5048963;28;45427;-76
2022/11/05 03:18:03;;;;;;;;;6.33;5.67;;;;;11.92;66.29;-19530.19;5054913;28;46046;-76
2022/11/05 03:20:50;;;;;;;;;5.00;5.00;;;;;11.88;66.55;-19529.25;5047999;28;45380;-76
2022/11/05 03:23:34;;;;;;;;;7.33;5.67;;;;;11.86;66.47;-19528.72;5048566;28;45464;-75
2022/11/05 03:26:06;;;;;;;;;6.67;6.67;;;;;11.88;66.25;-19529.13;5053400;28;45758;-75
2022/11/05 03:28:36;;;;;;;;;7.00;7.00;;;;;11.88;66.34;-19529.13;5052823;28;46141;-76
2022/11/05 03:31:04;;;;;;;;;7.67;7.67;;;;;11.86;66.29;-19528.72;5036945;28;45544;-75
2022/11/05 03:33:33;;;;;;;;;7.00;6.00;;;;;11.73;66.27;-19525.34;5054778;28;45323;-75
2022/11/05 03:36:18;;;;;;;;;7.33;6.00;;;;;11.60;66.24;-19521.84;5055108;28;45737;-75
2022/11/05 03:38:48;;;;;;;;;5.67;5.67;;;;;11.84;66.73;-19528.31;5034352;28;47116;-76
2022/11/05 03:41:14;;;;;;;;;6.67;6.67;;;;;11.86;66.66;-19528.56;5055308;28;45483;-75
2022/11/05 03:43:51;;;;;;;;;5.33;5.33;;;;;11.86;66.41;-19528.56;5054635;28;45504;-75
2022/11/05 03:46:30;;;;;;;;;5.33;5.33;;;;;11.92;66.45;-19530.19;5052985;28;45192;-76
2022/11/05 03:48:58;;;;;;;;;10.50;6.00;;;;;11.94;66.34;-19530.88;5054953;28;45540;-76
2022/11/05 03:51:59;;;;;;;;;6.00;6.00;;;;;11.93;66.40;-19530.47;5053711;28;45349;-76
2022/11/05 03:54:24;;;;;;;;;4.00;4.00;;;;;11.65;65.97;-19523.06;5030717;28;46795;-76
2022/11/05 03:57:09;;;;;;;;;5.00;5.00;;;;;11.93;66.52;-19530.59;5054687;28;45520;-75
2022/11/05 03:59:44;;;;;;;;;4.67;4.67;;;;;11.94;66.43;-19530.88;5049437;28;45586;-75
2022/11/05 04:02:20;;;;;;;;;6.00;6.00;;;;;11.97;66.56;-19531.69;5024159;28;45598;-75
2022/11/05 04:04:46;;;;;;;;;6.00;6.00;;;;;11.81;66.49;-19527.38;5040380;28;45580;-75
2022/11/05 04:15:26;;;;;;;;;4.33;4.33;;;;;11.82;66.72;-19527.75;5050367;28;45547;-79
2022/11/05 04:17:51;;;;;;;;;7.00;5.33;;;;;12.15;66.68;-19536.25;5056081;28;45635;-79
2022/11/05 04:25:49;;;;;;;;;3.00;3.00;;;;;12.15;66.59;-19536.38;5055093;28;45447;-79
2022/11/05 04:28:14;;;;;;;;;3.33;3.33;;;;;12.22;66.47;-19538.28;5036048;28;45782;-79
2022/11/05 04:30:40;;;;;;;;;5.00;4.00;;;;;12.22;66.58;-19538.28;5051428;28;45643;-79
2022/11/05 04:33:10;;;;;;;;;7.00;4.33;;;;;12.02;66.79;-19533.03;5057339;28;45366;-79
2022/11/05 04:35:39;;;;;;;;;5.00;4.00;;;;;12.25;66.83;-19539.09;5058922;28;45485;-79
2022/11/05 04:38:06;;;;;;;;;6.00;5.00;;;;;12.29;66.77;-19539.88;5038386;28;45295;-79
2022/11/05 04:40:32;;;;;;;;;4.33;4.33;;;;;12.28;66.68;-19539.75;5053167;28;46243;-79
2022/11/05 04:42:58;;;;;;;;;4.00;4.00;;;;;12.29;66.58;-19539.88;5056254;28;45355;-79
2022/11/05 04:45:26;;;;;;;;;7.00;5.00;;;;;12.11;66.68;-19535.31;5034179;28;45528;-79
2022/11/05 04:47:52;;;;;;;;;4.00;4.00;;;;;12.25;66.65;-19539.09;5056636;28;45444;-79
2022/11/05 04:50:18;;;;;;;;;3.67;3.67;;;;;12.24;66.43;-19538.81;5057261;28;46043;-79
2022/11/05 04:52:44;;;;;;;;;7.00;6.00;;;;;12.19;66.61;-19537.47;5036180;28;46061;-79
2022/11/05 04:55:09;;;;;;;;;5.00;5.00;;;;;12.16;66.49;-19536.66;5049259;28;45716;-79
2022/11/05 04:57:35;;;;;;;;;5.67;3.67;;;;;12.18;66.54;-19537.19;5057222;28;45571;-79
2022/11/05 05:00:01;;;;;;;;;5.33;5.33;;;;;12.17;66.35;-19536.94;5056672;28;45492;-79
2022/11/05 05:02:27;;;;;;;;;4.33;3.00;;;;;12.12;66.53;-19535.59;5057195;28;45436;-79
2022/11/05 05:04:52;;;;;;;;;4.00;4.00;;;;;12.12;66.38;-19535.44;5054413;28;45858;-79
2022/11/05 05:07:18;;;;;;;;;5.00;5.00;;;;;12.11;66.49;-19535.19;5056377;28;45368;-79
2022/11/05 05:09:44;;;;;;;;;6.00;4.67;;;;;11.88;66.56;-19529.13;5053340;28;45855;-79
2022/11/05 05:12:09;;;;;;;;;6.00;6.00;;;;;11.94;66.64;-19530.88;5055379;28;45519;-79
2022/11/05 05:14:35;;;;;;;;;5.00;5.00;;;;;11.98;66.87;-19531.94;5053770;28;45330;-79
2022/11/05 05:17:00;;;;;;;;;6.33;5.00;;;;;12.13;66.45;-19535.84;5051560;28;45434;-79
2022/11/05 05:19:26;;;;;;;;;6.00;6.00;;;;;12.17;66.83;-19536.78;5051706;28;45661;-79
2022/11/05 05:21:51;;;;;;;;;6.00;5.00;;;;;12.18;66.64;-19537.06;5048532;28;45739;-79
2022/11/05 05:24:19;;;;;;;;;3.00;3.00;;;;;12.19;66.84;-19537.34;5046150;28;45738;-79
2022/11/05 05:26:47;;;;;;;;;5.00;5.00;;;;;12.17;66.83;-19536.78;5049592;28;45504;-78
2022/11/05 05:29:13;;;;;;;;;5.67;4.00;;;;;12.15;66.70;-19536.25;5050241;28;45611;-79
2022/11/05 05:31:40;;;;;;;;;6.33;5.00;;;;;12.13;66.93;-19535.72;5054258;28;45556;-79
2022/11/05 05:34:07;;;;;;;;;5.67;5.67;;;;;12.09;66.78;-19534.78;5037301;28;45488;-79
2022/11/05 05:36:32;;;;;;;;;6.33;5.67;;;;;11.88;66.56;-19529.25;5044135;28;45506;-79
2022/11/05 05:38:58;;;;;;;;;5.00;5.00;;;;;12.05;66.70;-19533.69;5034623;28;48143;-79
2022/11/05 05:41:30;;;;;;;;;7.33;5.67;;;;;11.84;66.95;-19528.31;5057422;28;45358;-79
2022/11/05 05:43:56;;;;;;;;;6.33;5.00;;;;;12.01;67.06;-19532.75;5054060;28;45607;-79
2022/11/05 05:46:21;;;;;;;;;6.00;6.00;;;;;12.00;66.65;-19532.34;5048463;28;45557;-79
2022/11/05 05:48:49;;;;;;;;;5.00;5.00;;;;;12.00;66.64;-19532.34;5051422;28;45523;-79
2022/11/05 05:51:16;;;;;;;;;7.00;5.00;;;;;11.72;66.43;-19524.94;5034564;28;45449;-79
2022/11/05 05:53:41;;;;;;;;;11.33;8.33;;;;;11.62;66.80;-19522.38;5045403;28;45509;-80
2022/11/05 05:56:07;;;;;;;;;5.00;5.00;;;;;11.89;66.82;-19529.53;5053317;28;45394;-79
2022/11/05 05:58:34;;;;;;;;;5.00;5.00;;;;;11.73;66.79;-19525.19;5053298;28;45609;-79
2022/11/05 06:01:01;;;;;;;;;6.00;5.00;;;;;11.86;66.64;-19528.72;5049346;28;45571;-79
2022/11/05 06:03:27;;;;;;;;;5.00;5.00;;;;;11.60;66.56;-19521.97;5052051;28;45904;-79
2022/11/05 06:05:52;;;;;;;;;7.00;5.67;;;;;11.79;66.80;-19526.81;5055881;28;45467;-79
2022/11/05 06:08:18;;;;;;;;;5.00;5.00;;;;;11.66;66.66;-19523.31;5052579;28;45920;-79
2022/11/05 06:10:50;;;;;;;;;6.00;5.33;;;;;11.77;66.75;-19526.41;5023238;28;45723;-79
2022/11/05 06:13:15;;;;;;;;;5.00;5.00;;;;;11.76;66.96;-19526.16;5050975;28;46172;-79
2022/11/05 06:15:40;;;;;;;;;5.67;5.00;;;;;11.75;67.03;-19525.88;5035638;28;45413;-79
2022/11/05 06:18:06;;;;;;;;;6.00;6.00;;;;;11.62;67.21;-19522.50;5049389;28;47085;-79
2022/11/05 06:20:31;;;;;;;;;6.00;4.00;;;;;11.47;67.06;-19518.47;5048007;28;45652;-79
2022/11/05 06:22:57;;;;;;;;;9.00;7.00;;;;;11.68;67.38;-19523.84;5053054;28;45451;-79
2022/11/05 06:25:23;;;;;;;;;4.67;4.67;;;;;11.76;66.97;-19526.16;5048824;28;45782;-79
2022/11/05 06:27:49;;;;;;;;;6.00;4.00;;;;;11.75;67.06;-19525.88;5057093;28;45552;-79
2022/11/05 06:30:15;;;;;;;;;6.00;5.00;;;;;11.65;67.30;-19523.19;5051417;28;46892;-79
2022/11/05 06:32:40;;;;;;;;;5.67;5.33;;;;;11.55;67.22;-19520.50;5055779;28;45545;-79
2022/11/05 06:35:06;;;;;;;;;5.00;5.00;;;;;11.74;67.42;-19525.59;5056639;28;45517;-79
2022/11/05 06:37:32;;;;;;;;;5.00;5.00;;;;;11.75;67.22;-19525.88;5055805;28;45446;-79
2022/11/05 06:39:58;;;;;;;;;7.33;5.00;;;;;11.58;67.24;-19521.28;5052979;28;45387;-79
2022/11/05 06:42:24;;;;;;;;;7.67;7.00;;;;;11.75;67.56;-19525.75;5051552;28;45544;-79
2022/11/05 06:44:50;;;;;;;;;7.00;5.33;;;;;11.31;67.60;-19514.16;5036396;28;45489;-78
2022/11/05 06:47:16;;;;;;;;;8.00;6.00;;;;;11.76;67.52;-19526.16;5051112;28;45538;-78
2022/11/05 06:49:42;;;;;;;;;4.00;4.00;;;;;11.54;67.38;-19520.34;5051213;28;45425;-79
2022/11/05 06:52:07;;;;;;;;;5.33;5.33;;;;;11.81;67.51;-19527.38;5046376;28;45521;-79
2022/11/05 06:54:33;;;;;;;;;6.00;5.00;;;;;11.65;67.98;-19523.06;5047497;28;45691;-79
2022/11/05 06:56:58;;;;;;;;;6.00;4.33;;;;;11.86;67.76;-19528.72;5033549;28;46852;-79
2022/11/05 06:59:23;;;;;;;;;4.67;4.67;;;;;11.88;67.80;-19529.13;5032527;28;45739;-79
2022/11/05 07:01:49;;;;;;;;;5.00;5.00;;;;;11.93;67.99;-19530.47;5031837;28;45518;-79
2022/11/05 07:04:15;;;;;;;;;6.67;6.67;;;;;11.95;67.87;-19531.00;5050043;28;45480;-79
2022/11/05 07:06:40;;;;;;;;;6.00;6.00;;;;;11.98;68.10;-19531.81;5052688;28;45949;-79
2022/11/05 07:09:05;;;;;;;;;8.33;6.00;;;;;11.92;67.94;-19530.34;5049827;28;45435;-78
2022/11/05 07:11:31;;;;;;;;;5.00;5.00;;;;;12.02;68.00;-19532.88;5051088;28;45880;-79
2022/11/05 07:13:56;;;;;;;;;6.33;5.00;;;;;12.05;67.99;-19533.69;5028909;28;46332;-79
2022/11/05 07:16:21;;;;;;;;;4.00;4.00;;;;;12.02;68.07;-19532.88;5035945;28;47930;-79
2022/11/05 07:18:47;;;;;;;;;4.33;4.33;;;;;12.13;68.25;-19535.84;5035474;28;45889;-79
2022/11/05 07:21:12;;;;;;;;;7.33;4.00;;;;;12.18;68.18;-19537.06;5024952;28;45606;-79
2022/11/05 07:23:37;;;;;;;;;8.00;6.00;;;;;12.08;68.20;-19534.38;5027304;28;45413;-79
2022/11/05 07:26:03;;;;;;;;;6.00;5.00;;;;;12.19;68.09;-19537.47;5034327;28;49632;-78
2022/11/05 07:28:28;;;;;;;;;6.67;4.00;;;;;12.22;68.04;-19538.28;5053866;28;45381;-78
2022/11/05 07:30:54;;;;;;;;;5.33;5.33;;;;;12.33;68.01;-19540.97;5050730;28;46003;-78
2022/11/05 07:33:19;;;;;;;;;5.00;5.00;;;;;12.36;68.05;-19541.78;5049537;28;45432;-78
2022/11/05 07:35:44;;;;;;;;;5.33;5.00;;;;;12.38;67.95;-19542.44;5054714;28;46184;-78
2022/11/05 07:38:10;;;;;;;;;4.33;4.33;;;;;12.19;67.98;-19537.34;5051812;28;45342;-79
2022/11/05 07:40:35;;;;;;;;;7.67;6.00;;;;;12.47;68.35;-19544.72;5054070;28;45487;-78
2022/11/05 07:43:01;;;;;;;;;8.33;6.00;;;;;12.41;67.72;-19543.13;5055749;28;45491;-78
2022/11/05 07:45:29;;;;;;;;;6.00;5.00;;;;;12.28;67.91;-19539.63;5054802;28;45373;-79
2022/11/05 07:47:59;;;;;;;;;6.00;6.00;;;;;12.55;67.61;-19546.75;5053221;28;45370;-79
2022/11/05 07:50:31;;;;;;;;;5.33;4.33;;;;;12.67;67.71;-19550.13;5049398;28;45432;-79
2022/11/05 07:53:09;;;;;;;;;8.00;6.33;;;;;12.73;67.73;-19551.47;5053547;28;45591;-79
2022/11/05 07:55:34;;;;;;;;;6.00;6.00;;;;;12.79;67.50;-19553.09;5047421;28;46639;-79
2022/11/05 07:58:00;;;;;;;;;6.33;6.33;;;;;12.85;67.52;-19554.69;5051543;28;45465;-78
2022/11/05 08:00:26;;;;;;;;;3.67;3.67;;;;;12.93;66.91;-19556.72;5050205;28;45570;-79
2022/11/05 08:03:18;;;;;;;;;5.00;4.00;;;;;13.00;66.86;-19558.72;5034958;28;45326;-79
2022/11/05 08:05:45;;;;;;;;;5.00;4.00;;;;;13.09;66.84;-19561.16;5038574;28;46411;-79
2022/11/05 08:08:13;;;;;;;;;5.67;4.67;;;;;13.16;66.87;-19562.75;5054850;28;45330;-79
2022/11/05 08:10:38;;;;;;;;;7.00;5.00;;;;;13.17;66.64;-19563.03;5051510;28;45461;-75
2022/11/05 08:13:05;;;;;;;;;6.67;6.67;;;;;13.30;66.92;-19566.53;5053548;28;45504;-75
2022/11/05 08:15:31;;;;;;;;;7.00;6.00;;;;;13.04;66.85;-19559.81;5056400;28;45546;-75
2022/11/05 08:17:58;;;;;;;;;8.00;5.33;;;;;12.95;66.28;-19557.38;5053228;28;45338;-76
2022/11/05 08:20:23;;;;;;;;;6.00;5.00;;;;;13.45;65.77;-19570.44;5055128;28;45462;-76
2022/11/05 08:22:49;;;;;;;;;9.00;8.00;;;;;13.40;65.99;-19569.22;5035322;28;45572;-75
2022/11/05 08:25:14;;;;;;;;;5.00;5.00;;;;;13.56;65.45;-19573.41;5028783;28;47954;-75
2022/11/05 08:27:40;;;;;;;;;6.33;6.00;;;;;13.59;65.25;-19574.19;5052242;28;45525;-76
2022/11/05 08:30:07;;;;;;;;;4.33;4.33;;;;;13.82;65.07;-19580.25;5051441;28;45599;-75
2022/11/05 08:32:32;;;;;;;;;6.67;6.67;;;;;13.89;64.79;-19582.00;5052157;28;45653;-75
2022/11/05 08:34:57;;;;;;;;;6.67;6.67;;;;;13.82;64.74;-19580.25;5054544;28;45605;-75
2022/11/05 08:37:23;;;;;;;;;2.00;0.33;;;;;14.01;64.51;-19585.09;5054924;28;45412;-75
2022/11/05 08:39:49;;;;;;;;;7.00;5.33;;;;;14.06;64.46;-19586.56;5051436;28;45377;-76
2022/11/05 08:42:15;;;;;;;;;8.33;6.67;;;;;14.18;64.47;-19589.53;5048697;28;45588;-79
2022/11/05 08:44:40;;;;;;;;;7.33;6.67;;;;;13.91;64.22;-19582.66;5030018;28;46121;-75
2022/11/05 08:47:06;;;;;;;;;4.67;4.67;;;;;14.38;63.56;-19594.91;5028963;28;45615;-75
2022/11/05 08:49:31;;;;;;;;;3.67;3.67;;;;;14.51;63.55;-19598.38;5033181;28;45504;-76
2022/11/05 08:51:56;;;;;;;;;5.33;3.67;;;;;14.47;63.65;-19597.31;5051128;28;45652;-76
2022/11/05 08:54:22;;;;;;;;;3.33;3.33;;;;;14.70;62.77;-19603.22;5047926;28;46402;-76
2022/11/05 08:56:47;;;;;;;;;4.00;4.00;;;;;14.75;62.81;-19604.69;5055428;28;45465;-76
2022/11/05 08:59:12;;;;;;;;;3.33;3.33;;;;;14.64;62.62;-19601.63;5058577;28;45230;-76
2022/11/05 09:01:38;;;;;;;;;3.00;2.33;;;;;14.96;62.16;-19610.06;5055848;28;45500;-76
2022/11/05 09:04:03;;;;;;;;;5.00;4.00;;;;;15.03;61.85;-19611.94;5035216;28;45516;-76
2022/11/05 09:06:28;;;;;;;;;2.33;2.00;;;;;14.94;61.77;-19609.53;5057470;28;45641;-76
2022/11/05 09:08:54;;;;;;;;;3.00;3.00;;;;;15.02;62.00;-19611.53;5056621;28;45914;-76
2022/11/05 09:11:20;;;;;;;;;2.00;2.00;;;;;14.78;61.56;-19605.50;5032977;28;46665;-76
2022/11/05 09:13:45;;;;;;;;;2.33;2.33;;;;;15.13;61.69;-19614.50;5052658;28;46413;-76
2022/11/05 09:16:24;;;;;;;;;4.00;4.00;;;;;15.17;61.78;-19615.56;5036498;28;45900;-76
2022/11/05 09:18:51;;;;;;;;;1.67;1.67;;;;;15.25;61.27;-19617.72;5056746;28;45444;-76
2022/11/05 09:21:17;;;;;;;;;1.67;1.67;;;;;15.29;60.80;-19618.78;5053082;28;45401;-76
2022/11/05 09:23:44;;;;;;;;;2.00;2.00;;;;;15.33;60.02;-19619.88;5030829;28;48951;-76
2022/11/05 09:26:11;;;;;;;;;2.00;2.00;;;;;15.28;60.37;-19618.38;5039333;28;45898;-76
2022/11/05 09:28:37;;;;;;;;;1.00;1.00;;;;;15.50;60.78;-19624.16;5054569;28;45462;-76
2022/11/05 09:31:08;;;;;;;;;2.00;2.00;;;;;15.62;60.20;-19627.38;5062757;28;45562;-76
2022/11/05 09:33:35;;;;;;;;;2.67;1.00;;;;;15.75;60.33;-19630.88;5052134;28;47243;-76
2022/11/05 09:36:01;;;;;;;;;2.00;2.00;;;;;15.70;59.60;-19629.38;5054690;28;45528;-75
2022/11/05 09:38:27;;;;;;;;;1.00;1.00;;;;;15.83;59.21;-19632.88;5052932;28;45547;-80
2022/11/05 09:41:12;;;;;;;;;2.00;2.00;;;;;15.85;59.09;-19633.41;5039960;28;45642;-83
2022/11/05 09:43:49;;;;;;;;;2.00;2.00;;;;;15.68;59.40;-19628.84;5040884;28;46249;-83
2022/11/05 09:46:24;;;;;;;;;2.00;2.00;;;;;15.83;58.98;-19632.88;5055978;28;45231;-82
2022/11/05 09:49:24;;;;;;;;;1.67;1.67;;;;;15.79;58.46;-19631.94;5042229;28;45627;-82
2022/11/05 09:51:55;;;;;;;;;0.67;0.67;;;;;15.76;58.55;-19631.00;5051881;28;45629;-79
2022/11/05 09:54:27;;;;;;;;;1.00;1.00;;;;;15.72;58.70;-19630.06;5052324;28;46102;-75
2022/11/05 09:56:54;;;;;;;;;1.00;1.00;;;;;15.56;58.65;-19625.75;5056964;28;45527;-83
2022/11/05 09:59:28;;;;;;;;;1.00;1.00;;;;;15.72;59.24;-19629.94;5049469;28;45510;-82
2022/11/05 10:02:02;;;;;;;;;4.00;3.00;;;;;15.73;59.31;-19630.34;5057410;28;45737;-83
2022/11/05 10:04:31;;;;;;;;;0.00;0.00;;;;;15.61;58.83;-19627.25;5057183;28;46923;-83
2022/11/05 10:07:00;;;;;;;;;4.00;1.00;;;;;15.83;58.73;-19632.88;5053297;28;45571;-83
2022/11/05 10:09:35;;;;;;;;;1.00;1.00;;;;;15.88;58.96;-19634.09;5056565;28;45575;-85
2022/11/05 10:12:14;;;;;;;;;0.67;0.67;;;;;15.87;58.53;-19633.94;5057795;28;45339;-76
2022/11/05 10:14:45;;;;;;;;;1.67;1.67;;;;;15.86;58.32;-19633.69;5056392;28;48371;-76
2022/11/05 10:17:23;;;;;;;;;4.00;4.00;;;;;15.85;58.78;-19633.28;5059920;28;45373;-77
2022/11/05 10:20:17;;;;;;;;;4.00;3.00;;;;;15.80;58.98;-19632.22;5042354;28;45875;-78
2022/11/05 10:22:43;;;;;;;;;2.25;2.00;;;;;15.96;59.15;-19636.34;5055300;28;45468;-74
2022/11/05 10:25:17;;;;;;;;;4.67;2.00;;;;;15.95;58.76;-19635.97;5032605;28;47177;-72
2022/11/05 10:27:54;;;;;;;;;3.67;1.33;;;;;15.67;58.67;-19628.72;5038909;28;45445;-76
2022/11/05 10:30:20;;;;;;;;;1.33;1.33;;;;;15.65;58.92;-19628.19;5038024;28;45380;-76
2022/11/05 10:32:48;;;;;;;;;58.00;43.33;;;;;15.71;59.07;-19629.78;5055430;28;45514;-78
2022/11/05 10:35:17;;;;;;;;;31.67;30.33;;;;;15.49;58.78;-19623.88;5056084;28;46217;-75
2022/11/05 10:37:45;;;;;;;;;36.33;33.00;;;;;16.01;58.46;-19637.72;5055921;28;45527;-76
2022/11/05 10:40:24;;;;;;;;;13.00;7.00;;;;;16.02;58.75;-19637.84;5056101;28;45440;-75
2022/11/05 10:43:03;;;;;;;;;1.33;1.33;;;;;15.83;58.61;-19633.00;5055072;28;45474;-74
2022/11/05 10:45:39;;;;;;;;;3.67;2.00;;;;;15.93;58.79;-19635.56;5021823;28;48255;-76
2022/11/05 10:48:42;;;;;;;;;6.67;2.33;;;;;16.12;59.14;-19640.50;5038671;28;45416;-76
2022/11/05 10:51:07;;;;;;;;;2.00;1.00;;;;;16.07;58.61;-19639.03;5056051;28;45416;-79
2022/11/05 10:53:37;;;;;;;;;1.00;1.00;;;;;16.27;58.42;-19644.28;5033503;28;45557;-71
2022/11/05 10:56:02;;;;;;;;;3.00;2.33;;;;;16.29;58.11;-19644.81;5053288;28;46359;-72
2022/11/05 10:58:30;;;;;;;;;2.00;2.00;;;;;16.26;58.34;-19644.13;5054325;28;45431;-73
2022/11/05 11:00:56;;;;;;;;;3.00;1.00;;;;;16.25;58.37;-19643.88;5054542;28;45525;-71
2022/11/05 11:03:40;;;;;;;;;3.00;2.00;;;;;16.17;58.66;-19641.84;5052034;28;45839;-71
2022/11/05 11:06:20;;;;;;;;;3.00;1.67;;;;;16.23;58.89;-19643.34;5056619;28;45801;-72
2022/11/05 11:08:48;;;;;;;;;3.67;1.00;;;;;16.27;59.25;-19644.28;5039350;28;45337;-72
2022/11/05 11:11:34;;;;;;;;;2.33;1.00;;;;;16.29;59.02;-19644.94;5058005;28;45358;-82
2022/11/05 11:14:10;;;;;;;;;1.00;1.00;;;;;16.33;59.33;-19646.00;5057636;28;45371;-82
2022/11/05 11:16:41;;;;;;;;;1.00;1.00;;;;;16.32;58.69;-19645.75;5057622;28;45480;-82
2022/11/05 11:19:31;;;;;;;;;2.00;1.67;;;;;16.22;58.55;-19643.19;5056932;28;45317;-82
2022/11/05 11:22:03;;;;;;;;;2.67;2.00;;;;;16.30;58.62;-19645.22;5057179;28;45337;-82
2022/11/05 11:24:30;;;;;;;;;3.00;2.00;;;;;16.28;58.68;-19644.53;5052289;28;45436;-82
2022/11/05 11:27:04;;;;;;;;;1.00;1.00;;;;;16.31;58.98;-19645.47;5057628;28;45596;-82
2022/11/05 11:29:34;;;;;;;;;3.67;2.00;;;;;16.39;58.96;-19647.50;5057866;28;45254;-82
2022/11/05 11:32:00;;;;;;;;;2.33;2.00;;;;;16.46;58.85;-19649.50;5057117;28;45418;-82
2022/11/05 11:34:33;;;;;;;;;2.00;2.00;;;;;16.52;58.63;-19650.97;5039872;28;45488;-82
2022/11/05 11:37:08;;;;;;;;;3.67;1.00;;;;;16.63;58.31;-19653.78;5056895;28;46273;-81
2022/11/05 11:39:36;;;;;;;;;2.00;2.00;;;;;16.52;58.37;-19650.84;5056857;28;45287;-81
2022/11/05 11:42:13;;;;;;;;;10.33;10.00;;;;;16.74;58.00;-19656.72;5056964;28;45680;-82
2022/11/05 11:44:43;;;;;;;;;12.67;9.67;;;;;16.54;57.55;-19651.38;5057259;28;45249;-82
2022/11/05 11:47:12;;;;;;;;;3.00;1.75;;;;;16.80;57.73;-19658.34;5056183;28;45455;-82
2022/11/05 11:49:41;;;;;;;;;3.33;2.00;;;;;16.85;57.69;-19659.53;5057367;28;45326;-82
2022/11/05 11:52:34;;;;;;;;;2.00;1.00;;;;;16.91;57.71;-19661.16;5057171;28;45828;-81
2022/11/05 11:55:28;;;;;;;;;4.00;4.00;;;;;16.93;57.08;-19661.69;5042598;28;45519;-83
2022/11/05 11:58:05;;;;;;;;;4.00;2.33;;;;;16.99;57.18;-19663.28;5039608;28;45920;-83
2022/11/05 12:00:35;;;;;;;;;1.00;1.00;;;;;16.95;56.71;-19662.22;5056579;28;45512;-84
2022/11/05 12:03:03;;;;;;;;;1.75;1.00;;;;;17.13;56.68;-19666.78;5063345;28;45437;-83
2022/11/05 12:05:37;;;;;;;;;1.25;0.00;;;;;17.13;56.47;-19666.91;5059423;28;45535;-83
2022/11/05 12:08:27;;;;;;;;;1.25;1.25;;;;;17.08;56.02;-19665.69;5077381;28;45374;-83
2022/11/05 12:11:31;;;;;;;;;2.00;2.00;;;;;17.07;55.96;-19665.31;5071403;28;45338;-71
2022/11/05 12:14:17;;;;;;;;;3.00;0.50;;;;;17.02;55.90;-19664.09;5056359;28;45664;-72
2022/11/05 12:16:49;;;;;;;;;1.00;1.00;;;;;16.95;55.72;-19662.22;5057742;28;45382;-71